sensor_id;sensor_type;location;lat;lon;timestamp;pressure;altitude;pressure_sealevel;temperature;humidity
49040;BME280;36811;49.732;13.402;2023-02-17T00:01:21;98545.31;;;5.62;74.67
49040;BME280;36811;49.732;13.402;2023-02-17T00:03:48;98537.84;;;5.46;75.46
49040;BME280;36811;49.732;13.402;2023-02-17T00:06:17;98529.34;;;5.44;75.76
49040;BME280;36811;49.732;13.402;2023-02-17T00:08:44;98524.47;;;5.41;75.62
49040;BME280;36811;49.732;13.402;2023-02-17T00:11:09;98519.59;;;5.38;76.12
49040;BME280;36811;49.732;13.402;2023-02-17T00:13:35;98513.91;;;5.34;76.04
49040;BME280;36811;49.732;13.402;2023-02-17T00:16:06;98516.53;;;5.28;76.72
49040;BME280;36811;49.732;13.402;2023-02-17T00:18:33;98513.50;;;5.24;76.92
49040;BME280;36811;49.732;13.402;2023-02-17T00:20:58;98515.94;;;5.39;76.72
49040;BME280;36811;49.732;13.402;2023-02-17T00:23:24;98515.31;;;5.37;76.43
49040;BME280;36811;49.732;13.402;2023-02-17T00:25:49;98526.91;;;5.36;76.78
49040;BME280;36811;49.732;13.402;2023-02-17T00:28:15;98519.59;;;5.38;76.74
49040;BME280;36811;49.732;13.402;2023-02-17T00:30:40;98524.88;;;5.31;77.04
49040;BME280;36811;49.732;13.402;2023-02-17T00:33:06;98518.38;;;5.34;77.39
49040;BME280;36811;49.732;13.402;2023-02-17T00:35:32;98520.59;;;5.37;77.27
49040;BME280;36811;49.732;13.402;2023-02-17T00:37:58;98518.78;;;5.31;77.27
49040;BME280;36811;49.732;13.402;2023-02-17T00:40:23;98506.63;;;5.23;77.60
49040;BME280;36811;49.732;13.402;2023-02-17T00:42:49;98507.41;;;5.17;77.73
49040;BME280;36811;49.732;13.402;2023-02-17T00:45:15;98510.66;;;5.26;77.51
49040;BME280;36811;49.732;13.402;2023-02-17T00:47:41;98502.53;;;5.40;77.15
49040;BME280;36811;49.732;13.402;2023-02-17T00:50:07;98500.50;;;5.49;76.81
49040;BME280;36811;49.732;13.402;2023-02-17T00:52:32;98498.47;;;5.38;77.14
49040;BME280;36811;49.732;13.402;2023-02-17T00:54:58;98496.66;;;5.38;77.04
49040;BME280;36811;49.732;13.402;2023-02-17T00:57:23;98494.41;;;5.42;77.01
49040;BME280;36811;49.732;13.402;2023-02-17T00:59:50;98495.03;;;5.44;77.40
49040;BME280;36811;49.732;13.402;2023-02-17T01:02:16;98486.25;;;5.63;77.12
49040;BME280;36811;49.732;13.402;2023-02-17T01:04:41;98489.06;;;5.74;76.75
49040;BME280;36811;49.732;13.402;2023-02-17T01:07:07;98480.53;;;5.86;76.17
49040;BME280;36811;49.732;13.402;2023-02-17T01:09:33;98491.50;;;5.89;76.23
49040;BME280;36811;49.732;13.402;2023-02-17T01:11:58;98491.50;;;5.89;76.18
49040;BME280;36811;49.732;13.402;2023-02-17T01:14:24;98488.06;;;5.89;76.11
49040;BME280;36811;49.732;13.402;2023-02-17T01:16:50;98482.78;;;5.89;76.11
49040;BME280;36811;49.732;13.402;2023-02-17T01:19:17;98483.38;;;5.84;76.10
49040;BME280;36811;49.732;13.402;2023-02-17T01:21:44;98485.41;;;5.75;76.30
49040;BME280;36811;49.732;13.402;2023-02-17T01:24:11;98478.97;;;5.58;76.69
49040;BME280;36811;49.732;13.402;2023-02-17T01:26:38;98477.16;;;5.46;77.04
49040;BME280;36811;49.732;13.402;2023-02-17T01:29:05;98480.81;;;5.45;77.17
49040;BME280;36811;49.732;13.402;2023-02-17T01:31:32;98475.34;;;5.46;77.71
49040;BME280;36811;49.732;13.402;2023-02-17T01:34:00;98467.22;;;5.48;77.30
49040;BME280;36811;49.732;13.402;2023-02-17T01:36:27;98463.75;;;5.54;77.38
49040;BME280;36811;49.732;13.402;2023-02-17T01:38:53;98461.13;;;5.54;77.15
49040;BME280;36811;49.732;13.402;2023-02-17T01:41:21;98454.03;;;5.48;77.32
49040;BME280;36811;49.732;13.402;2023-02-17T01:44:10;98445.31;;;5.41;77.67
49040;BME280;36811;49.732;13.402;2023-02-17T01:46:37;98447.75;;;5.29;77.82
49040;BME280;36811;49.732;13.402;2023-02-17T01:51:38;98433.16;;;5.27;77.79
49040;BME280;36811;49.732;13.402;2023-02-17T01:54:12;98425.03;;;5.22;78.19
49040;BME280;36811;49.732;13.402;2023-02-17T01:56:42;98431.97;;;5.16;78.34
49040;BME280;36811;49.732;13.402;2023-02-17T01:59:17;98425.06;;;5.15;78.44
49040;BME280;36811;49.732;13.402;2023-02-17T02:01:45;98413.50;;;5.16;78.21
49040;BME280;36811;49.732;13.402;2023-02-17T02:04:12;98416.75;;;5.18;78.70
49040;BME280;36811;49.732;13.402;2023-02-17T02:06:40;98412.50;;;5.24;78.28
49040;BME280;36811;49.732;13.402;2023-02-17T02:09:35;98413.69;;;5.28;78.18
49040;BME280;36811;49.732;13.402;2023-02-17T02:12:01;98415.09;;;5.30;78.62
49040;BME280;36811;49.732;13.402;2023-02-17T02:14:28;98408.59;;;5.33;78.05
49040;BME280;36811;49.732;13.402;2023-02-17T02:17:14;98406.56;;;5.35;77.94
49040;BME280;36811;49.732;13.402;2023-02-17T02:30:51;98402.00;;;5.68;77.23
49040;BME280;36811;49.732;13.402;2023-02-17T02:36:17;98395.94;;;5.61;77.29
49040;BME280;36811;49.732;13.402;2023-02-17T02:38:52;98384.56;;;5.60;77.46
49040;BME280;36811;49.732;13.402;2023-02-17T02:41:54;98387.63;;;5.64;76.76
49040;BME280;36811;49.732;13.402;2023-02-17T02:44:22;98396.72;;;5.68;76.84
49040;BME280;36811;49.732;13.402;2023-02-17T02:47:29;98398.94;;;5.71;76.63
49040;BME280;36811;49.732;13.402;2023-02-17T02:49:50;98392.84;;;5.70;76.78
49040;BME280;36811;49.732;13.402;2023-02-17T02:52:55;98390.44;;;5.69;77.00
49040;BME280;36811;49.732;13.402;2023-02-17T02:58:18;98386.38;;;5.66;76.82
49040;BME280;36811;49.732;13.402;2023-02-17T03:01:15;98375.19;;;5.71;76.25
49040;BME280;36811;49.732;13.402;2023-02-17T03:03:45;98373.16;;;5.73;76.52
49040;BME280;36811;49.732;13.402;2023-02-17T03:08:57;98362.34;;;5.81;76.32
49040;BME280;36811;49.732;13.402;2023-02-17T03:11:24;98363.56;;;5.85;76.08
49040;BME280;36811;49.732;13.402;2023-02-17T03:16:30;98361.69;;;5.92;75.83
49040;BME280;36811;49.732;13.402;2023-02-17T03:18:57;98358.22;;;5.98;75.52
49040;BME280;36811;49.732;13.402;2023-02-17T03:21:27;98352.09;;;6.04;75.14
49040;BME280;36811;49.732;13.402;2023-02-17T03:23:55;98349.41;;;6.11;75.11
49040;BME280;36811;49.732;13.402;2023-02-17T03:26:21;98345.13;;;6.16;74.74
49040;BME280;36811;49.732;13.402;2023-02-17T03:28:46;98356.66;;;6.22;74.90
49040;BME280;36811;49.732;13.402;2023-02-17T03:31:12;98364.53;;;6.28;74.68
49040;BME280;36811;49.732;13.402;2023-02-17T03:33:37;98360.66;;;6.31;74.28
49040;BME280;36811;49.732;13.402;2023-02-17T03:36:03;98352.31;;;6.34;74.16
49040;BME280;36811;49.732;13.402;2023-02-17T03:38:29;98358.19;;;6.36;74.10
49040;BME280;36811;49.732;13.402;2023-02-17T03:40:54;98355.28;;;6.44;73.91
49040;BME280;36811;49.732;13.402;2023-02-17T03:43:20;98348.34;;;6.50;73.96
49040;BME280;36811;49.732;13.402;2023-02-17T03:45:46;98352.75;;;6.56;73.50
49040;BME280;36811;49.732;13.402;2023-02-17T03:48:11;98350.25;;;6.61;73.50
49040;BME280;36811;49.732;13.402;2023-02-17T03:50:37;98346.03;;;6.60;73.00
49040;BME280;36811;49.732;13.402;2023-02-17T03:53:02;98342.56;;;6.59;73.15
49040;BME280;36811;49.732;13.402;2023-02-17T03:55:29;98346.59;;;6.62;73.17
49040;BME280;36811;49.732;13.402;2023-02-17T03:57:55;98334.56;;;6.66;73.02
49040;BME280;36811;49.732;13.402;2023-02-17T04:00:21;98348.41;;;6.68;72.93
49040;BME280;36811;49.732;13.402;2023-02-17T04:02:46;98356.84;;;6.76;72.59
49040;BME280;36811;49.732;13.402;2023-02-17T04:05:12;98353.69;;;6.86;72.61
49040;BME280;36811;49.732;13.402;2023-02-17T04:07:37;98345.72;;;6.92;72.23
49040;BME280;36811;49.732;13.402;2023-02-17T04:10:04;98350.13;;;6.98;72.09
49040;BME280;36811;49.732;13.402;2023-02-17T04:12:29;98355.38;;;7.05;71.87
49040;BME280;36811;49.732;13.402;2023-02-17T04:14:55;98349.41;;;7.10;71.68
49040;BME280;36811;49.732;13.402;2023-02-17T04:17:21;98350.81;;;7.12;71.49
49040;BME280;36811;49.732;13.402;2023-02-17T04:19:46;98354.03;;;7.14;71.17
49040;BME280;36811;49.732;13.402;2023-02-17T04:22:12;98345.09;;;7.15;71.46
49040;BME280;36811;49.732;13.402;2023-02-17T04:24:37;98339.78;;;7.15;71.14
49040;BME280;36811;49.732;13.402;2023-02-17T04:27:04;98361.78;;;7.16;71.26
49040;BME280;36811;49.732;13.402;2023-02-17T04:29:31;98345.66;;;7.17;71.26
49040;BME280;36811;49.732;13.402;2023-02-17T04:31:57;98340.16;;;7.19;71.03
49040;BME280;36811;49.732;13.402;2023-02-17T04:34:22;98339.44;;;7.30;71.17
49040;BME280;36811;49.732;13.402;2023-02-17T04:36:48;98330.38;;;7.37;70.61
49040;BME280;36811;49.732;13.402;2023-02-17T04:39:13;98320.31;;;7.46;70.39
49040;BME280;36811;49.732;13.402;2023-02-17T04:41:39;98323.69;;;7.53;70.27
49040;BME280;36811;49.732;13.402;2023-02-17T04:44:05;98311.97;;;7.60;69.96
49040;BME280;36811;49.732;13.402;2023-02-17T04:46:30;98314.31;;;7.68;69.57
49040;BME280;36811;49.732;13.402;2023-02-17T04:48:56;98311.94;;;7.79;69.40
49040;BME280;36811;49.732;13.402;2023-02-17T04:51:21;98326.84;;;7.91;68.68
49040;BME280;36811;49.732;13.402;2023-02-17T04:53:47;98324.47;;;8.01;68.57
49040;BME280;36811;49.732;13.402;2023-02-17T04:56:13;98321.28;;;8.11;68.06
49040;BME280;36811;49.732;13.402;2023-02-17T04:58:38;98328.53;;;8.15;67.88
49040;BME280;36811;49.732;13.402;2023-02-17T05:01:04;98329.91;;;8.18;68.09
49040;BME280;36811;49.732;13.402;2023-02-17T05:03:29;98333.91;;;8.27;68.07
49040;BME280;36811;49.732;13.402;2023-02-17T05:05:55;98334.25;;;8.30;67.76
49040;BME280;36811;49.732;13.402;2023-02-17T05:08:21;98330.34;;;8.33;67.95
49040;BME280;36811;49.732;13.402;2023-02-17T05:10:46;98334.16;;;8.37;67.63
49040;BME280;36811;49.732;13.402;2023-02-17T05:13:12;98334.94;;;8.38;67.48
49040;BME280;36811;49.732;13.402;2023-02-17T05:15:37;98333.69;;;8.40;67.15
49040;BME280;36811;49.732;13.402;2023-02-17T05:18:03;98333.22;;;8.43;67.75
49040;BME280;36811;49.732;13.402;2023-02-17T05:20:29;98325.84;;;8.45;67.22
49040;BME280;36811;49.732;13.402;2023-02-17T05:22:55;98323.00;;;8.47;67.53
49040;BME280;36811;49.732;13.402;2023-02-17T05:25:21;98324.47;;;8.43;66.93
49040;BME280;36811;49.732;13.402;2023-02-17T05:27:46;98323.19;;;8.45;67.64
49040;BME280;36811;49.732;13.402;2023-02-17T05:30:12;98315.25;;;8.45;67.48
49040;BME280;36811;49.732;13.402;2023-02-17T05:32:38;98322.41;;;8.45;67.71
49040;BME280;36811;49.732;13.402;2023-02-17T05:35:04;98320.34;;;8.47;68.00
49040;BME280;36811;49.732;13.402;2023-02-17T05:37:29;98307.09;;;8.47;67.46
49040;BME280;36811;49.732;13.402;2023-02-17T05:39:55;98309.94;;;8.45;67.66
49040;BME280;36811;49.732;13.402;2023-02-17T05:42:20;98306.16;;;8.41;68.27
49040;BME280;36811;49.732;13.402;2023-02-17T05:44:46;98308.56;;;8.43;68.99
49040;BME280;36811;49.732;13.402;2023-02-17T05:47:11;98311.22;;;8.43;68.86
49040;BME280;36811;49.732;13.402;2023-02-17T05:49:37;98316.06;;;8.46;69.43
49040;BME280;36811;49.732;13.402;2023-02-17T05:52:03;98318.03;;;8.50;69.21
49040;BME280;36811;49.732;13.402;2023-02-17T05:54:28;98312.16;;;8.48;69.15
49040;BME280;36811;49.732;13.402;2023-02-17T05:56:54;98311.56;;;8.46;69.26
49040;BME280;36811;49.732;13.402;2023-02-17T05:59:19;98313.19;;;8.47;69.36
49040;BME280;36811;49.732;13.402;2023-02-17T06:01:45;98316.88;;;8.46;69.82
49040;BME280;36811;49.732;13.402;2023-02-17T06:04:11;98311.56;;;8.46;70.15
49040;BME280;36811;49.732;13.402;2023-02-17T06:06:36;98311.69;;;8.51;70.39
49040;BME280;36811;49.732;13.402;2023-02-17T06:09:02;98313.19;;;8.47;70.19
49040;BME280;36811;49.732;13.402;2023-02-17T06:11:27;98316.63;;;8.48;69.91
49040;BME280;36811;49.732;13.402;2023-02-17T06:13:53;98312.38;;;8.47;70.08
49040;BME280;36811;49.732;13.402;2023-02-17T06:16:19;98307.91;;;8.47;70.48
49040;BME280;36811;49.732;13.402;2023-02-17T06:18:44;98304.19;;;8.48;70.80
49040;BME280;36811;49.732;13.402;2023-02-17T06:21:10;98305.91;;;8.43;70.17
49040;BME280;36811;49.732;13.402;2023-02-17T06:23:36;98291.75;;;8.37;70.46
49040;BME280;36811;49.732;13.402;2023-02-17T06:26:02;98291.75;;;8.37;70.74
49040;BME280;36811;49.732;13.402;2023-02-17T06:28:27;98295.56;;;8.41;70.80
49040;BME280;36811;49.732;13.402;2023-02-17T06:30:53;98294.16;;;8.39;70.41
49040;BME280;36811;49.732;13.402;2023-02-17T06:33:18;98296.69;;;8.45;70.33
49040;BME280;36811;49.732;13.402;2023-02-17T06:35:49;98299.94;;;8.47;70.57
49040;BME280;36811;49.732;13.402;2023-02-17T06:38:14;98299.25;;;8.52;70.01
49040;BME280;36811;49.732;13.402;2023-02-17T06:40:40;98302.47;;;8.54;69.82
49040;BME280;36811;49.732;13.402;2023-02-17T06:43:05;98299.59;;;8.55;69.73
49040;BME280;36811;49.732;13.402;2023-02-17T06:45:31;98296.16;;;8.55;70.06
49040;BME280;36811;49.732;13.402;2023-02-17T06:47:57;98301.66;;;8.53;69.61
49040;BME280;36811;49.732;13.402;2023-02-17T06:50:22;98287.25;;;8.61;69.23
49040;BME280;36811;49.732;13.402;2023-02-17T06:52:48;98286.69;;;8.59;69.59
49040;BME280;36811;49.732;13.402;2023-02-17T06:55:14;98285.53;;;8.66;68.99
49040;BME280;36811;49.732;13.402;2023-02-17T06:57:39;98292.34;;;8.62;69.22
49040;BME280;36811;49.732;13.402;2023-02-17T07:00:06;98298.56;;;8.68;69.47
49040;BME280;36811;49.732;13.402;2023-02-17T07:02:31;98294.63;;;8.70;69.30
49040;BME280;36811;49.732;13.402;2023-02-17T07:04:57;98289.13;;;8.72;68.57
49040;BME280;36811;49.732;13.402;2023-02-17T07:07:23;98296.84;;;8.73;69.20
49040;BME280;36811;49.732;13.402;2023-02-17T07:09:48;98292.09;;;8.75;69.07
49040;BME280;36811;49.732;13.402;2023-02-17T07:12:14;98290.03;;;8.77;68.68
49040;BME280;36811;49.732;13.402;2023-02-17T07:14:40;98294.75;;;8.75;68.96
49040;BME280;36811;49.732;13.402;2023-02-17T07:17:06;98293.47;;;8.78;68.77
49040;BME280;36811;49.732;13.402;2023-02-17T07:19:31;98298.56;;;8.79;68.65
49040;BME280;36811;49.732;13.402;2023-02-17T07:21:57;98306.06;;;8.82;68.95
49040;BME280;36811;49.732;13.402;2023-02-17T07:24:23;98304.19;;;8.83;68.87
49040;BME280;36811;49.732;13.402;2023-02-17T07:26:48;98308.47;;;8.84;68.88
49040;BME280;36811;49.732;13.402;2023-02-17T07:29:14;98310.09;;;8.85;68.46
49040;BME280;36811;49.732;13.402;2023-02-17T07:31:40;98308.72;;;8.82;68.63
49040;BME280;36811;49.732;13.402;2023-02-17T07:34:05;98311.50;;;8.87;68.57
49040;BME280;36811;49.732;13.402;2023-02-17T07:36:31;98311.50;;;8.87;68.30
49040;BME280;36811;49.732;13.402;2023-02-17T07:38:57;98326.00;;;8.97;68.45
49040;BME280;36811;49.732;13.402;2023-02-17T07:41:23;98311.47;;;8.99;67.96
49040;BME280;36811;49.732;13.402;2023-02-17T07:43:54;98320.00;;;9.01;68.44
49040;BME280;36811;49.732;13.402;2023-02-17T07:46:21;98312.28;;;9.00;67.84
49040;BME280;36811;49.732;13.402;2023-02-17T07:48:47;98314.25;;;9.04;68.00
49040;BME280;36811;49.732;13.402;2023-02-17T07:51:19;98311.59;;;9.16;68.42
49040;BME280;36811;49.732;13.402;2023-02-17T07:53:46;98311.91;;;9.19;68.40
49040;BME280;36811;49.732;13.402;2023-02-17T07:56:14;98300.47;;;9.19;68.07
49040;BME280;36811;49.732;13.402;2023-02-17T07:58:42;98299.91;;;9.17;68.33
49040;BME280;36811;49.732;13.402;2023-02-17T08:01:12;98302.69;;;9.22;68.27
49040;BME280;36811;49.732;13.402;2023-02-17T08:03:39;98300.84;;;9.22;68.25
49040;BME280;36811;49.732;13.402;2023-02-17T08:06:19;98297.00;;;9.30;67.43
49040;BME280;36811;49.732;13.402;2023-02-17T08:08:47;98299.66;;;9.30;68.03
49040;BME280;36811;49.732;13.402;2023-02-17T08:11:31;98286.97;;;9.32;67.81
49040;BME280;36811;49.732;13.402;2023-02-17T08:14:15;98294.69;;;9.33;67.48
49040;BME280;36811;49.732;13.402;2023-02-17T08:16:41;98303.91;;;9.42;67.57
49040;BME280;36811;49.732;13.402;2023-02-17T08:19:07;98297.78;;;9.42;67.66
49040;BME280;36811;49.732;13.402;2023-02-17T08:21:33;98300.06;;;9.50;67.13
49040;BME280;36811;49.732;13.402;2023-02-17T08:23:59;98285.41;;;9.47;66.85
49040;BME280;36811;49.732;13.402;2023-02-17T08:26:25;98316.66;;;9.57;67.02
49040;BME280;36811;49.732;13.402;2023-02-17T08:28:50;98311.69;;;9.61;66.84
49040;BME280;36811;49.732;13.402;2023-02-17T08:31:22;98300.47;;;9.70;66.59
49040;BME280;36811;49.732;13.402;2023-02-17T08:33:50;98297.19;;;9.80;66.45
49040;BME280;36811;49.732;13.402;2023-02-17T08:36:16;98290.78;;;9.92;66.35
49040;BME280;36811;49.732;13.402;2023-02-17T08:38:42;98293.69;;;9.91;65.58
49040;BME280;36811;49.732;13.402;2023-02-17T08:41:20;98291.94;;;9.96;65.67
49040;BME280;36811;49.732;13.402;2023-02-17T08:43:47;98294.97;;;10.05;65.87
49040;BME280;36811;49.732;13.402;2023-02-17T08:46:13;98307.56;;;10.09;65.63
49040;BME280;36811;49.732;13.402;2023-02-17T08:48:40;98297.50;;;10.11;65.91
49040;BME280;36811;49.732;13.402;2023-02-17T08:51:06;98287.56;;;10.18;65.88
49040;BME280;36811;49.732;13.402;2023-02-17T08:53:33;98287.63;;;10.24;65.39
49040;BME280;36811;49.732;13.402;2023-02-17T08:55:59;98286.56;;;10.25;65.52
49040;BME280;36811;49.732;13.402;2023-02-17T08:58:24;98277.31;;;10.27;65.91
49040;BME280;36811;49.732;13.402;2023-02-17T09:00:50;98269.13;;;10.29;65.47
49040;BME280;36811;49.732;13.402;2023-02-17T09:03:16;98266.47;;;10.29;65.37
49040;BME280;36811;49.732;13.402;2023-02-17T09:05:42;98262.84;;;10.35;65.11
49040;BME280;36811;49.732;13.402;2023-02-17T09:08:08;98260.66;;;10.32;64.66
49040;BME280;36811;49.732;13.402;2023-02-17T09:10:36;98270.38;;;10.43;65.06
49040;BME280;36811;49.732;13.402;2023-02-17T09:13:02;98257.31;;;10.58;64.95
49040;BME280;36811;49.732;13.402;2023-02-17T09:15:27;98256.34;;;10.64;64.66
49040;BME280;36811;49.732;13.402;2023-02-17T09:17:53;98264.59;;;10.62;64.42
49040;BME280;36811;49.732;13.402;2023-02-17T09:20:19;98252.66;;;10.65;64.56
49040;BME280;36811;49.732;13.402;2023-02-17T09:22:45;98276.91;;;10.68;64.75
49040;BME280;36811;49.732;13.402;2023-02-17T09:25:10;98271.22;;;10.60;64.78
49040;BME280;36811;49.732;13.402;2023-02-17T09:27:36;98276.69;;;10.53;65.48
49040;BME280;36811;49.732;13.402;2023-02-17T09:30:01;98279.81;;;10.50;65.43
49040;BME280;36811;49.732;13.402;2023-02-17T09:32:27;98288.13;;;10.54;65.42
49040;BME280;36811;49.732;13.402;2023-02-17T09:34:53;98288.13;;;10.54;65.49
49040;BME280;36811;49.732;13.402;2023-02-17T09:37:20;98300.06;;;10.51;65.53
49040;BME280;36811;49.732;13.402;2023-02-17T09:39:46;98297.66;;;10.50;65.89
49040;BME280;36811;49.732;13.402;2023-02-17T09:42:24;98296.44;;;10.57;65.61
49040;BME280;36811;49.732;13.402;2023-02-17T09:45:04;98292.78;;;10.63;66.14
49040;BME280;36811;49.732;13.402;2023-02-17T09:47:54;98288.38;;;10.69;66.34
49040;BME280;36811;49.732;13.402;2023-02-17T09:50:24;98289.91;;;10.65;66.41
49040;BME280;36811;49.732;13.402;2023-02-17T09:53:20;98287.31;;;10.70;66.84
49040;BME280;36811;49.732;13.402;2023-02-17T09:55:50;98291.34;;;10.72;66.72
49040;BME280;36811;49.732;13.402;2023-02-17T10:00:55;98282.44;;;10.83;67.27
49040;BME280;36811;49.732;13.402;2023-02-17T10:03:42;98277.59;;;10.80;67.67
49040;BME280;36811;49.732;13.402;2023-02-17T10:06:13;98289.13;;;10.86;68.27
49040;BME280;36811;49.732;13.402;2023-02-17T10:09:06;98291.06;;;10.91;68.30
49040;BME280;36811;49.732;13.402;2023-02-17T10:11:40;98292.75;;;10.97;68.57
49040;BME280;36811;49.732;13.402;2023-02-17T10:14:29;98293.25;;;10.94;68.64
49040;BME280;36811;49.732;13.402;2023-02-17T10:17:12;98293.50;;;10.92;68.37
49040;BME280;36811;49.732;13.402;2023-02-17T10:19:56;98265.66;;;10.83;69.15
49040;BME280;36811;49.732;13.402;2023-02-17T10:22:25;98299.72;;;10.81;69.63
49040;BME280;36811;49.732;13.402;2023-02-17T10:24:52;98293.41;;;10.87;68.97
49040;BME280;36811;49.732;13.402;2023-02-17T10:27:40;98289.69;;;10.88;69.68
49040;BME280;36811;49.732;13.402;2023-02-17T10:30:27;98282.78;;;10.87;69.20
49040;BME280;36811;49.732;13.402;2023-02-17T10:36:21;98286.81;;;10.73;70.00
49040;BME280;36811;49.732;13.402;2023-02-17T10:38:57;98270.78;;;10.68;70.32
49040;BME280;36811;49.732;13.402;2023-02-17T10:41:32;98284.06;;;10.68;70.27
49040;BME280;36811;49.732;13.402;2023-02-17T10:44:00;98265.88;;;10.60;70.48
49040;BME280;36811;49.732;13.402;2023-02-17T10:46:30;98280.47;;;10.57;70.85
49040;BME280;36811;49.732;13.402;2023-02-17T10:48:58;98271.63;;;10.52;70.90
49040;BME280;36811;49.732;13.402;2023-02-17T10:51:27;98259.44;;;10.56;70.89
49040;BME280;36811;49.732;13.402;2023-02-17T10:54:06;98264.13;;;10.49;70.98
49040;BME280;36811;49.732;13.402;2023-02-17T10:56:48;98229.34;;;10.55;70.96
49040;BME280;36811;49.732;13.402;2023-02-17T10:59:30;98254.38;;;10.54;71.06
49040;BME280;36811;49.732;13.402;2023-02-17T11:02:19;98249.03;;;10.54;71.05
49040;BME280;36811;49.732;13.402;2023-02-17T11:04:49;98239.28;;;10.60;71.24
49040;BME280;36811;49.732;13.402;2023-02-17T11:07:17;98244.09;;;10.63;70.88
49040;BME280;36811;49.732;13.402;2023-02-17T11:09:47;98231.31;;;10.60;71.00
49040;BME280;36811;49.732;13.402;2023-02-17T11:12:25;98244.09;;;10.63;71.42
49040;BME280;36811;49.732;13.402;2023-02-17T11:14:53;98236.78;;;10.70;70.97
49040;BME280;36811;49.732;13.402;2023-02-17T11:17:40;98243.63;;;10.66;71.28
49040;BME280;36811;49.732;13.402;2023-02-17T11:20:28;98232.53;;;10.52;71.83
49040;BME280;36811;49.732;13.402;2023-02-17T11:23:06;98238.63;;;10.53;72.25
49040;BME280;36811;49.732;13.402;2023-02-17T11:25:36;98228.31;;;10.56;71.99
49040;BME280;36811;49.732;13.402;2023-02-17T11:28:05;98224.38;;;10.59;72.51
49040;BME280;36811;49.732;13.402;2023-02-17T11:30:33;98224.69;;;10.62;72.22
49040;BME280;36811;49.732;13.402;2023-02-17T11:33:13;98213.06;;;10.68;72.28
49040;BME280;36811;49.732;13.402;2023-02-17T11:38:16;98193.41;;;10.69;72.32
49040;BME280;36811;49.732;13.402;2023-02-17T11:41:01;98203.78;;;10.71;72.23
49040;BME280;36811;49.732;13.402;2023-02-17T11:43:28;98192.72;;;10.79;72.49
49040;BME280;36811;49.732;13.402;2023-02-17T11:57:32;98172.03;;;10.64;73.78
49040;BME280;36811;49.732;13.402;2023-02-17T12:08:20;98157.50;;;10.72;73.87
49040;BME280;36811;49.732;13.402;2023-02-17T12:11:00;98182.00;;;10.74;73.71
49040;BME280;36811;49.732;13.402;2023-02-17T12:16:38;98179.78;;;10.88;73.56
49040;BME280;36811;49.732;13.402;2023-02-17T12:22:19;98151.00;;;11.06;73.23
49040;BME280;36811;49.732;13.402;2023-02-17T12:25:05;98153.16;;;11.09;73.53
49040;BME280;36811;49.732;13.402;2023-02-17T12:30:26;98145.22;;;11.14;72.50
49040;BME280;36811;49.732;13.402;2023-02-17T12:35:48;98147.56;;;11.11;73.18
49040;BME280;36811;49.732;13.402;2023-02-17T12:38:35;98158.28;;;11.16;72.76
49040;BME280;36811;49.732;13.402;2023-02-17T12:43:41;98145.53;;;11.18;72.70
49040;BME280;36811;49.732;13.402;2023-02-17T12:46:09;98154.91;;;11.20;73.05
49040;BME280;36811;49.732;13.402;2023-02-17T12:48:37;98130.94;;;11.20;73.41
49040;BME280;36811;49.732;13.402;2023-02-17T12:51:19;98153.28;;;11.19;73.56
49040;BME280;36811;49.732;13.402;2023-02-17T12:53:50;98142.41;;;10.99;76.43
49040;BME280;36811;49.732;13.402;2023-02-17T12:58:51;98131.25;;;10.59;78.74
49040;BME280;36811;49.732;13.402;2023-02-17T13:01:25;98132.31;;;10.58;81.47
49040;BME280;36811;49.732;13.402;2023-02-17T13:03:53;98125.25;;;10.68;81.31
49040;BME280;36811;49.732;13.402;2023-02-17T13:06:40;98122.91;;;10.72;81.21
49040;BME280;36811;49.732;13.402;2023-02-17T13:09:27;98121.00;;;10.89;79.70
49040;BME280;36811;49.732;13.402;2023-02-17T13:12:05;98113.38;;;10.98;80.22
49040;BME280;36811;49.732;13.402;2023-02-17T13:14:40;98110.31;;;11.11;80.33
49040;BME280;36811;49.732;13.402;2023-02-17T13:17:29;98115.13;;;11.14;79.98
49040;BME280;36811;49.732;13.402;2023-02-17T13:22:37;98113.00;;;11.37;78.78
49040;BME280;36811;49.732;13.402;2023-02-17T13:25:03;98113.25;;;11.41;78.07
49040;BME280;36811;49.732;13.402;2023-02-17T13:27:37;98114.94;;;11.47;78.45
49040;BME280;36811;49.732;13.402;2023-02-17T13:30:27;98124.69;;;11.63;78.06
49040;BME280;36811;49.732;13.402;2023-02-17T13:33:06;98124.53;;;11.75;77.30
49040;BME280;36811;49.732;13.402;2023-02-17T13:35:39;98119.47;;;11.73;76.74
49040;BME280;36811;49.732;13.402;2023-02-17T13:38:05;98121.81;;;11.70;76.92
49040;BME280;36811;49.732;13.402;2023-02-17T13:40:37;98115.91;;;11.68;76.17
49040;BME280;36811;49.732;13.402;2023-02-17T13:43:17;98127.34;;;11.63;76.62
49040;BME280;36811;49.732;13.402;2023-02-17T13:45:58;98122.00;;;11.63;76.52
49040;BME280;36811;49.732;13.402;2023-02-17T13:48:27;98123.88;;;11.63;76.29
49040;BME280;36811;49.732;13.402;2023-02-17T13:50:58;98123.00;;;11.57;76.27
49040;BME280;36811;49.732;13.402;2023-02-17T13:53:34;98116.69;;;11.63;76.21
49040;BME280;36811;49.732;13.402;2023-02-17T13:56:08;98122.91;;;11.69;76.46
49040;BME280;36811;49.732;13.402;2023-02-17T13:58:38;98107.88;;;11.63;75.25
49040;BME280;36811;49.732;13.402;2023-02-17T14:01:16;98117.16;;;11.55;76.52
49040;BME280;36811;49.732;13.402;2023-02-17T14:03:54;98114.75;;;11.59;75.86
49040;BME280;36811;49.732;13.402;2023-02-17T14:06:34;98096.06;;;11.54;76.27
49040;BME280;36811;49.732;13.402;2023-02-17T14:09:18;98094.13;;;11.44;76.82
49040;BME280;36811;49.732;13.402;2023-02-17T14:11:45;98105.84;;;11.43;77.14
49040;BME280;36811;49.732;13.402;2023-02-17T14:14:11;98097.38;;;11.51;76.82
49040;BME280;36811;49.732;13.402;2023-02-17T14:16:39;98102.50;;;11.58;76.58
49040;BME280;36811;49.732;13.402;2023-02-17T14:19:23;98099.59;;;11.59;77.01
49040;BME280;36811;49.732;13.402;2023-02-17T14:22:01;98096.00;;;11.70;76.62
49040;BME280;36811;49.732;13.402;2023-02-17T14:27:09;98081.78;;;11.65;75.95